createdAt,value
2022-11-03T00:02:12.049Z,17.15
2022-11-03T00:04:44.143Z,16.35
2022-11-03T00:07:10.940Z,18.20
2022-11-03T00:09:39.906Z,16.73
2022-11-03T00:12:09.504Z,16.83
2022-11-03T00:14:39.215Z,16.83
2022-11-03T00:17:10.993Z,16.67
2022-11-03T00:19:40.031Z,16.35
2022-11-03T00:22:11.332Z,14.57
2022-11-03T00:24:41.039Z,14.82
2022-11-03T00:27:10.319Z,14.88
2022-11-03T00:29:42.168Z,14.27
2022-11-03T00:32:08.830Z,13.63
2022-11-03T00:34:35.848Z,14.82
2022-11-03T00:37:02.523Z,13.90
2022-11-03T00:39:29.188Z,15.63
2022-11-03T00:41:55.880Z,15.73
2022-11-03T00:44:23.760Z,16.45
2022-11-03T00:46:50.847Z,16.17
2022-11-03T00:49:17.625Z,15.77
2022-11-03T00:51:44.329Z,16.88
2022-11-03T00:54:11.045Z,16.70
2022-11-03T00:56:40.105Z,15.48
2022-11-03T00:59:09.297Z,15.25
2022-11-03T01:01:45.813Z,16.10
2022-11-03T01:04:33.554Z,14.93
2022-11-03T01:07:08.467Z,16.80
2022-11-03T01:09:47.910Z,15.68
2022-11-03T01:12:19.343Z,14.18
2022-11-03T01:14:54.248Z,15.23
2022-11-03T01:17:23.792Z,14.88
2022-11-03T01:19:53.240Z,14.47
2022-11-03T01:22:20.928Z,14.05
2022-11-03T01:24:53.964Z,14.20
2022-11-03T01:27:22.652Z,12.90
2022-11-03T01:29:51.858Z,12.80
2022-11-03T01:32:18.835Z,14.32
2022-11-03T01:34:45.704Z,14.48
2022-11-03T01:37:27.031Z,13.57
2022-11-03T01:39:56.258Z,14.45
2022-11-03T01:42:23.111Z,13.65
2022-11-03T01:44:51.063Z,13.73
2022-11-03T01:47:33.045Z,11.60
2022-11-03T01:50:07.440Z,13.05
2022-11-03T01:52:56.617Z,12.50
2022-11-03T01:55:37.414Z,13.75
2022-11-03T01:58:08.692Z,13.65
2022-11-03T02:00:36.390Z,12.18
2022-11-03T02:03:04.349Z,12.52
2022-11-03T02:05:31.347Z,13.73
2022-11-03T02:08:02.125Z,12.35
2022-11-03T02:10:28.875Z,12.63
2022-11-03T02:12:57.917Z,13.50
2022-11-03T02:15:30.178Z,12.35
2022-11-03T02:17:58.144Z,11.82
2022-11-03T02:20:35.780Z,13.75
2022-11-03T02:23:22.918Z,12.85
2022-11-03T02:25:57.889Z,11.70
2022-11-03T02:28:30.112Z,12.23
2022-11-03T02:31:04.626Z,13.50
2022-11-03T02:33:31.295Z,11.68
2022-11-03T02:36:35.688Z,13.50
2022-11-03T02:39:17.634Z,14.88
2022-11-03T02:41:47.290Z,14.55
2022-11-03T02:44:22.012Z,15.18
2022-11-03T02:46:54.753Z,16.70
2022-11-03T02:49:21.403Z,18.30
2022-11-03T02:51:50.491Z,15.82
2022-11-03T02:54:28.640Z,18.52
2022-11-03T02:57:05.220Z,19.02
2022-11-03T02:59:40.966Z,17.60
2022-11-03T03:02:12.140Z,15.00
2022-11-03T03:04:45.335Z,15.15
2022-11-03T03:07:25.057Z,15.68
2022-11-03T03:10:01.805Z,14.63
2022-11-03T03:12:29.946Z,15.60
2022-11-03T03:14:59.391Z,14.90
2022-11-03T03:17:41.817Z,16.33
2022-11-03T03:20:18.809Z,13.70
2022-11-03T03:23:01.790Z,16.60
2022-11-03T03:25:37.750Z,14.07
2022-11-03T03:28:15.811Z,15.18
2022-11-03T03:30:44.126Z,15.38
2022-11-03T03:33:11.936Z,14.45
2022-11-03T03:35:42.284Z,15.43
2022-11-03T03:38:15.071Z,14.82
2022-11-03T03:40:45.303Z,16.13
2022-11-03T03:43:14.311Z,13.68
2022-11-03T03:45:43.059Z,15.30
2022-11-03T03:48:09.999Z,14.30
2022-11-03T03:50:39.276Z,14.18
2022-11-03T03:53:12.292Z,13.27
2022-11-03T03:55:41.621Z,13.80
2022-11-03T03:58:11.976Z,14.63
2022-11-03T04:00:40.244Z,14.68
2022-11-03T04:03:13.135Z,13.90
2022-11-03T04:05:39.903Z,13.23
2022-11-03T04:08:11.145Z,15.75
2022-11-03T04:10:38.215Z,16.77
2022-11-03T04:13:24.265Z,19.02
2022-11-03T04:15:57.259Z,19.98
2022-11-03T04:18:42.685Z,18.40
2022-11-03T04:21:31.152Z,19.50
2022-11-03T04:24:00.233Z,20.45
2022-11-03T04:26:28.210Z,22.58
2022-11-03T04:28:55.638Z,23.00
2022-11-03T04:31:22.906Z,20.23
2022-11-03T04:33:49.682Z,23.85
2022-11-03T04:36:21.968Z,27.75
2022-11-03T04:38:50.131Z,26.83
2022-11-03T04:41:20.245Z,40.55
2022-11-03T04:43:47.441Z,40.15
2022-11-03T04:46:22.817Z,50.72
2022-11-03T04:48:49.970Z,50.40
2022-11-03T04:51:20.042Z,55.38
2022-11-03T04:54:01.505Z,52.58
2022-11-03T04:56:28.414Z,49.80
2022-11-03T04:58:55.122Z,41.13
2022-11-03T05:01:24.731Z,39.88
2022-11-03T05:03:54.206Z,37.42
2022-11-03T05:06:27.893Z,27.40
2022-11-03T05:09:02.741Z,20.13
2022-11-03T05:11:34.886Z,19.90
2022-11-03T05:14:06.807Z,19.90
2022-11-03T05:16:34.957Z,18.25
2022-11-03T05:19:03.797Z,18.38
2022-11-03T05:21:30.472Z,16.88
2022-11-03T05:24:03.417Z,15.95
2022-11-03T05:26:34.229Z,16.55
2022-11-03T05:29:20.885Z,16.13
2022-11-03T05:31:50.826Z,14.65
2022-11-03T05:34:32.279Z,16.00
2022-11-03T05:37:01.461Z,16.13
2022-11-03T05:39:34.310Z,15.68
2022-11-03T05:42:02.632Z,16.60
2022-11-03T05:44:37.015Z,18.40
2022-11-03T05:47:13.853Z,19.98
2022-11-03T05:49:40.880Z,20.50
2022-11-03T05:52:17.117Z,17.85
2022-11-03T05:54:44.078Z,16.58
2022-11-03T05:57:13.329Z,17.20
2022-11-03T05:59:40.164Z,17.77
2022-11-03T06:02:33.090Z,20.60
2022-11-03T06:04:59.799Z,20.63
2022-11-03T06:07:29.269Z,22.15
2022-11-03T06:09:56.946Z,19.75
2022-11-03T06:12:25.869Z,19.60
2022-11-03T06:14:52.869Z,21.50
2022-11-03T06:17:26.576Z,21.17
2022-11-03T06:19:57.443Z,17.48
2022-11-03T06:22:29.938Z,17.30
2022-11-03T06:25:00.389Z,18.80
2022-11-03T06:27:30.672Z,17.95
2022-11-03T06:30:01.200Z,18.50
2022-11-03T06:32:28.950Z,18.50
2022-11-03T06:34:58.048Z,19.23
2022-11-03T06:37:25.851Z,19.30
2022-11-03T06:39:59.946Z,18.73
2022-11-03T06:42:31.823Z,26.88
2022-11-03T06:44:59.107Z,29.10
2022-11-03T06:47:28.051Z,28.35
2022-11-03T06:49:58.395Z,25.60
2022-11-03T06:52:32.363Z,21.30
2022-11-03T06:55:12.098Z,21.75
2022-11-03T06:57:44.704Z,22.75
2022-11-03T07:00:32.972Z,23.17
2022-11-03T07:03:30.147Z,19.47
2022-11-03T07:06:11.075Z,20.65
2022-11-03T07:08:44.740Z,18.30
2022-11-03T07:11:17.790Z,20.33
2022-11-03T07:13:45.366Z,19.25
2022-11-03T07:16:37.318Z,19.13
2022-11-03T07:19:25.061Z,19.25
2022-11-03T07:21:54.979Z,19.52
2022-11-03T07:24:29.838Z,19.55
2022-11-03T07:27:12.439Z,19.38
2022-11-03T07:29:39.411Z,20.05
2022-11-03T07:32:15.546Z,20.17
2022-11-03T07:34:45.975Z,17.83
2022-11-03T07:37:20.688Z,16.42
2022-11-03T07:39:47.387Z,15.27
2022-11-03T07:42:18.529Z,18.92
2022-11-03T07:44:45.646Z,16.55
2022-11-03T07:47:20.350Z,16.60
2022-11-03T07:49:47.590Z,20.33
2022-11-03T07:52:21.307Z,19.90
2022-11-03T07:54:48.608Z,19.27
2022-11-03T07:57:21.425Z,18.08
2022-11-03T07:59:50.623Z,17.98
2022-11-03T08:02:33.324Z,20.73
2022-11-03T08:05:02.671Z,20.25
2022-11-03T08:07:30.516Z,19.20
2022-11-03T08:09:59.829Z,19.08
2022-11-03T08:12:26.554Z,18.55
2022-11-03T08:14:53.283Z,20.50
2022-11-03T08:17:20.012Z,23.33
2022-11-03T08:19:46.722Z,24.85
2022-11-03T08:22:13.389Z,22.33
2022-11-03T08:24:40.092Z,20.45
2022-11-03T08:27:07.962Z,21.17
2022-11-03T08:29:34.651Z,20.65
2022-11-03T08:32:01.572Z,18.23
2022-11-03T08:34:28.235Z,19.90
2022-11-03T08:36:54.903Z,19.55
2022-11-03T08:39:21.580Z,21.58
2022-11-03T08:41:48.295Z,31.63
2022-11-03T08:44:14.925Z,25.85
2022-11-03T08:46:41.580Z,29.63
2022-11-03T08:49:08.340Z,44.60
2022-11-03T08:51:43.051Z,44.40
2022-11-03T08:54:11.042Z,33.58
2022-11-03T08:56:37.689Z,29.10
2022-11-03T08:59:04.304Z,26.40
2022-11-03T09:01:31.104Z,23.95
2022-11-03T09:03:57.849Z,30.23
2022-11-03T09:06:24.601Z,27.65
2022-11-03T09:11:37.932Z,27.50
2022-11-03T09:14:04.576Z,25.85
2022-11-03T09:16:31.232Z,25.33
2022-11-03T09:18:57.875Z,32.08
2022-11-03T09:21:24.584Z,28.08
2022-11-03T09:23:51.322Z,24.73
2022-11-03T09:26:18.001Z,25.95
2022-11-03T09:28:44.655Z,27.20
2022-11-03T09:31:11.390Z,25.17
2022-11-03T09:33:38.142Z,23.98
2022-11-03T09:36:05.133Z,23.42
2022-11-03T09:38:31.826Z,27.73
2022-11-03T09:40:59.061Z,27.83
2022-11-03T09:43:25.836Z,25.75
2022-11-03T09:45:53.732Z,28.08
2022-11-03T09:48:20.457Z,27.77
2022-11-03T09:50:51.810Z,25.15
2022-11-03T09:53:18.575Z,22.98
2022-11-03T09:55:45.385Z,22.67
2022-11-03T09:58:17.350Z,25.30
2022-11-03T10:00:45.093Z,24.58
2022-11-03T10:03:13.889Z,23.55
2022-11-03T10:05:42.238Z,25.85
2022-11-03T10:08:19.995Z,25.00
2022-11-03T10:10:52.568Z,21.67
2022-11-03T10:13:35.631Z,26.17
2022-11-03T10:16:05.273Z,23.48
2022-11-03T10:18:33.843Z,21.55
2022-11-03T10:21:12.836Z,19.80
2022-11-03T10:23:39.482Z,19.42
2022-11-03T10:26:16.474Z,19.83
2022-11-03T10:28:59.313Z,18.80
2022-11-03T10:31:45.473Z,16.67
2022-11-03T10:34:37.378Z,16.95
2022-11-03T10:37:20.928Z,15.98
2022-11-03T10:39:49.717Z,16.92
2022-11-03T10:42:18.292Z,16.50
2022-11-03T10:44:44.953Z,14.85
2022-11-03T10:47:31.653Z,14.00
2022-11-03T10:49:58.960Z,12.35
2022-11-03T10:52:29.924Z,11.38
2022-11-03T10:54:58.306Z,11.55
2022-11-03T10:57:28.786Z,11.27
2022-11-03T10:59:56.245Z,12.10
2022-11-03T11:02:32.177Z,11.38
2022-11-03T11:05:01.568Z,15.50
2022-11-03T11:07:51.351Z,8.48
2022-11-03T11:10:27.013Z,9.13
2022-11-03T11:13:18.768Z,9.82
2022-11-03T11:16:00.414Z,21.60
2022-11-03T11:18:30.658Z,10.70
2022-11-03T11:21:01.899Z,7.22
2022-11-03T11:23:31.622Z,8.38
2022-11-03T11:26:10.639Z,7.60
2022-11-03T11:28:38.345Z,7.35
2022-11-03T11:32:03.419Z,7.07
2022-11-03T11:34:36.165Z,6.97
2022-11-03T11:37:03.801Z,5.32
2022-11-03T11:39:31.158Z,6.03
2022-11-03T11:42:17.612Z,5.60
2022-11-03T11:44:52.696Z,6.05
2022-11-03T11:47:44.112Z,4.72
2022-11-03T11:50:22.884Z,18.15
2022-11-03T11:53:05.158Z,11.38
2022-11-03T11:55:41.525Z,5.25
2022-11-03T11:58:19.701Z,16.65
2022-11-03T12:01:01.988Z,6.00
2022-11-03T12:03:36.107Z,4.50
2022-11-03T12:06:03.323Z,22.52
2022-11-03T12:08:31.258Z,13.18
2022-11-03T12:11:01.793Z,12.45
2022-11-03T12:13:55.283Z,6.20
2022-11-03T12:16:38.249Z,5.30
2022-11-03T12:19:37.974Z,4.18
2022-11-03T12:22:07.255Z,4.97
2022-11-03T12:24:38.654Z,4.63
2022-11-03T12:27:20.961Z,7.82
2022-11-03T12:29:47.727Z,4.63
2022-11-03T12:32:32.156Z,12.05
2022-11-03T12:35:00.092Z,4.03
2022-11-03T12:37:29.218Z,2.80
2022-11-03T12:39:55.960Z,2.78
2022-11-03T12:42:25.083Z,2.83
2022-11-03T12:44:52.607Z,2.67
2022-11-03T12:47:20.183Z,2.35
2022-11-03T12:49:46.932Z,2.53
2022-11-03T12:52:13.669Z,2.63
2022-11-03T12:54:40.458Z,3.55
2022-11-03T12:57:07.175Z,3.20
2022-11-03T12:59:33.958Z,3.47
2022-11-03T13:02:00.761Z,2.28
2022-11-03T13:04:27.587Z,2.60
2022-11-03T13:06:54.399Z,2.05
2022-11-03T13:09:21.231Z,2.50
2022-11-03T13:12:09.266Z,1.90
2022-11-03T13:14:36.089Z,2.72
2022-11-03T13:17:03.811Z,2.78
2022-11-03T13:19:30.832Z,2.60
2022-11-03T13:21:57.689Z,3.55
2022-11-03T13:24:24.410Z,3.03
2022-11-03T13:26:51.225Z,3.30
2022-11-03T13:29:17.962Z,3.70
2022-11-03T13:31:44.770Z,2.95
2022-11-03T13:34:11.539Z,3.10
2022-11-03T13:36:46.723Z,4.05
2022-11-03T13:39:13.543Z,3.58
2022-11-03T13:41:40.333Z,3.15
2022-11-03T13:44:08.685Z,4.03
2022-11-03T13:46:35.485Z,3.17
2022-11-03T13:49:51.136Z,3.85
2022-11-03T13:51:49.569Z,3.10
2022-11-03T13:59:49.972Z,3.50
2022-11-03T14:05:07.131Z,3.92
2022-11-03T14:07:35.986Z,3.00
2022-11-03T14:10:04.451Z,3.38
2022-11-03T14:12:31.549Z,4.15
2022-11-03T14:14:59.763Z,3.05
2022-11-03T14:17:26.638Z,3.42
2022-11-03T14:19:56.510Z,4.05
2022-11-03T14:22:30.269Z,4.38
2022-11-03T14:24:57.103Z,3.65
2022-11-03T14:27:25.734Z,3.40
2022-11-03T14:29:52.506Z,3.45
2022-11-03T14:32:20.091Z,3.75
2022-11-03T14:34:47.919Z,3.97
2022-11-03T14:37:15.468Z,3.67
2022-11-03T14:39:48.395Z,4.03
2022-11-03T14:42:18.140Z,4.55
2022-11-03T14:44:48.065Z,4.57
2022-11-03T14:47:24.334Z,6.20
2022-11-03T14:52:38.568Z,8.90
2022-11-03T14:55:14.044Z,9.45
2022-11-03T14:58:06.441Z,9.85
2022-11-03T15:01:03.288Z,10.23
2022-11-03T15:03:42.449Z,10.00
2022-11-03T15:06:29.969Z,8.90
2022-11-03T15:11:37.710Z,11.15
2022-11-03T15:14:14.750Z,10.10
2022-11-03T15:16:56.236Z,9.48
2022-11-03T16:27:12.167Z,16.52
2022-11-03T16:30:40.129Z,15.15
2022-11-03T16:33:02.989Z,15.55
2022-11-03T16:35:52.900Z,17.17
2022-11-03T16:38:27.225Z,18.10
2022-11-03T16:41:02.881Z,17.55
2022-11-03T16:43:47.509Z,18.65
2022-11-03T16:46:33.966Z,21.48
2022-11-03T16:49:33.050Z,26.98
2022-11-03T16:55:16.168Z,44.53
2022-11-03T16:57:56.871Z,52.75
2022-11-03T17:00:32.497Z,50.58
2022-11-03T17:03:25.967Z,48.03
2022-11-03T17:06:04.162Z,53.28
2022-11-03T17:08:52.443Z,52.20
2022-11-03T17:11:41.166Z,53.88
2022-11-03T17:14:25.734Z,56.75
2022-11-03T17:16:52.500Z,56.60
2022-11-03T17:19:23.573Z,58.75
2022-11-03T17:28:20.923Z,52.03
2022-11-03T17:35:04.566Z,52.55
2022-11-03T17:37:49.109Z,51.15
2022-11-03T17:40:27.232Z,49.67
2022-11-03T17:42:53.987Z,52.58
2022-11-03T17:45:23.028Z,53.97
2022-11-03T17:47:50.808Z,61.33
2022-11-03T17:50:23.803Z,62.92
2022-11-03T17:52:52.485Z,65.30
2022-11-03T17:55:34.418Z,64.50
2022-11-03T17:58:04.818Z,63.95
2022-11-03T18:00:31.695Z,65.03
2022-11-03T18:03:07.781Z,65.85
2022-11-03T18:05:34.747Z,60.33
2022-11-03T18:08:05.826Z,60.00
2022-11-03T18:10:34.654Z,62.75
2022-11-03T18:13:18.137Z,59.53
2022-11-03T18:15:48.607Z,61.53
2022-11-03T18:20:52.926Z,53.97
2022-11-03T18:23:24.208Z,53.00
2022-11-03T18:25:53.274Z,48.80
2022-11-03T18:28:21.295Z,51.83
2022-11-03T18:30:54.854Z,49.08
2022-11-03T18:33:25.758Z,45.88
2022-11-03T18:35:53.678Z,42.60
2022-11-03T18:38:24.498Z,39.45
2022-11-03T18:40:51.526Z,43.22
2022-11-03T18:43:23.556Z,51.83
2022-11-03T18:45:52.134Z,50.97
2022-11-03T18:48:20.519Z,60.00
2022-11-03T18:50:49.837Z,57.10
2022-11-03T18:53:21.201Z,45.72
2022-11-03T18:55:51.047Z,51.40
2022-11-03T18:58:23.660Z,54.28
2022-11-03T19:00:52.262Z,55.25
2022-11-03T19:03:22.246Z,42.28
2022-11-03T19:05:51.454Z,38.25
2022-11-03T19:08:23.837Z,39.97
2022-11-03T19:10:52.458Z,36.67
2022-11-03T19:13:27.849Z,32.35
2022-11-03T19:16:03.069Z,36.03
2022-11-03T19:18:40.219Z,35.13
2022-11-03T19:21:23.622Z,37.03
2022-11-03T19:24:08.118Z,37.80
2022-11-03T19:26:44.379Z,33.15
2022-11-03T19:29:14.736Z,39.50
2022-11-03T19:31:48.881Z,40.05
2022-11-03T19:34:22.201Z,34.05
2022-11-03T19:36:51.360Z,34.05
2022-11-03T19:39:23.120Z,36.53
2022-11-03T19:42:11.063Z,37.30
2022-11-03T19:44:38.042Z,33.65
2022-11-03T19:47:05.483Z,31.45
2022-11-03T19:49:33.895Z,29.75
2022-11-03T20:01:55.975Z,22.80
2022-11-03T20:18:02.279Z,19.63
2022-11-03T20:31:17.886Z,20.90
2022-11-03T20:37:47.284Z,21.08
2022-11-03T20:43:06.370Z,17.50
2022-11-03T20:45:43.518Z,18.48
2022-11-03T20:48:52.299Z,17.35
2022-11-03T20:51:26.041Z,20.90
2022-11-03T20:57:03.070Z,18.30
2022-11-03T21:11:31.497Z,17.40
2022-11-03T21:43:36.947Z,17.27
2022-11-03T21:57:23.832Z,17.25
2022-11-03T22:00:58.815Z,20.58
2022-11-03T22:18:53.122Z,14.35
2022-11-03T22:22:30.612Z,16.65
2022-11-03T22:40:19.730Z,15.48
2022-11-03T22:51:14.511Z,17.42
2022-11-03T22:54:10.836Z,14.35
2022-11-03T22:56:49.493Z,14.55
2022-11-03T23:03:08.283Z,16.63
2022-11-03T23:12:06.665Z,18.42
2022-11-03T23:15:18.358Z,15.40
2022-11-03T23:18:14.717Z,16.52
2022-11-03T23:21:00.089Z,14.95
2022-11-03T23:24:05.301Z,15.48
2022-11-03T23:27:10.958Z,15.43
2022-11-03T23:30:34.197Z,15.52
2022-11-03T23:37:00.849Z,15.32
2022-11-03T23:43:32.746Z,15.20
2022-11-03T23:49:59.333Z,15.38
2022-11-03T23:59:51.890Z,14.90
